createdAt,value
2018-07-27T00:00:38.923Z,7.53
2018-07-27T00:03:07.117Z,8.97
2018-07-27T00:05:35.767Z,15.48
2018-07-27T00:08:04.372Z,7.00
2018-07-27T00:10:33.188Z,6.33
2018-07-27T00:13:01.585Z,7.20
2018-07-27T00:15:30.381Z,7.07
2018-07-27T00:17:59.395Z,8.35
2018-07-27T00:20:27.903Z,6.40
2018-07-27T00:22:56.244Z,6.43
2018-07-27T00:25:24.968Z,7.27
2018-07-27T00:27:53.575Z,7.77
2018-07-27T00:30:22.144Z,9.20
2018-07-27T00:32:50.579Z,6.17
2018-07-27T00:35:19.204Z,6.12
2018-07-27T00:37:47.679Z,7.93
2018-07-27T00:40:16.856Z,8.10
2018-07-27T00:42:45.494Z,7.00
2018-07-27T00:45:14.443Z,6.13
2018-07-27T00:47:42.994Z,6.60
2018-07-27T00:50:11.607Z,7.65
2018-07-27T00:52:39.944Z,9.73
2018-07-27T00:55:08.405Z,7.30
2018-07-27T00:57:37.468Z,7.37
2018-07-27T01:00:06.436Z,6.47
2018-07-27T01:02:34.940Z,8.17
2018-07-27T01:05:03.477Z,8.40
2018-07-27T01:07:32.090Z,7.00
2018-07-27T01:10:00.427Z,7.00
2018-07-27T01:12:28.735Z,8.43
2018-07-27T01:14:57.069Z,6.50
2018-07-27T01:17:25.698Z,7.67
2018-07-27T01:19:54.428Z,7.17
2018-07-27T01:22:23.380Z,7.33
2018-07-27T01:24:52.119Z,7.30
2018-07-27T01:27:20.442Z,8.37
2018-07-27T01:29:49.383Z,7.30
2018-07-27T01:32:17.844Z,7.40
2018-07-27T01:34:46.179Z,7.93
2018-07-27T01:37:14.528Z,10.80
2018-07-27T01:39:43.215Z,8.85
2018-07-27T01:42:11.620Z,9.33
2018-07-27T01:44:40.314Z,9.07
2018-07-27T01:47:08.723Z,7.93
2018-07-27T01:49:37.339Z,8.30
2018-07-27T01:52:05.752Z,8.73
2018-07-27T01:54:34.313Z,8.03
2018-07-27T01:57:02.785Z,7.17
2018-07-27T01:59:31.488Z,9.30
2018-07-27T02:01:59.800Z,8.63
2018-07-27T02:04:28.160Z,8.27
2018-07-27T02:06:56.849Z,10.28
2018-07-27T02:09:25.196Z,8.67
2018-07-27T02:11:53.773Z,9.23
2018-07-27T02:14:22.183Z,8.87
2018-07-27T02:16:50.724Z,9.00
2018-07-27T02:19:19.420Z,10.17
2018-07-27T02:21:47.774Z,8.73
2018-07-27T02:24:16.530Z,9.10
2018-07-27T02:26:44.855Z,9.00
2018-07-27T02:29:13.191Z,11.20
2018-07-27T02:31:41.901Z,9.43
2018-07-27T02:34:10.232Z,10.37
2018-07-27T02:36:38.601Z,10.30
2018-07-27T02:39:09.003Z,10.40
2018-07-27T02:41:37.671Z,14.40
2018-07-27T02:44:06.395Z,10.57
2018-07-27T02:46:34.715Z,9.70
2018-07-27T02:49:03.060Z,16.50
2018-07-27T02:51:32.234Z,11.60
2018-07-27T02:54:00.588Z,10.27
2018-07-27T02:56:29.196Z,12.30
2018-07-27T02:58:57.713Z,13.17
2018-07-27T03:01:26.447Z,11.53
2018-07-27T03:03:55.624Z,13.80
2018-07-27T03:06:23.969Z,10.53
2018-07-27T03:08:52.336Z,13.93
2018-07-27T03:11:21.452Z,13.08
2018-07-27T03:13:50.029Z,13.00
2018-07-27T03:16:18.405Z,10.50
2018-07-27T03:18:46.989Z,11.17
2018-07-27T03:21:15.396Z,12.67
2018-07-27T03:23:43.936Z,11.07
2018-07-27T03:26:12.356Z,14.33
2018-07-27T03:28:40.828Z,10.40
2018-07-27T03:31:09.167Z,13.70
2018-07-27T03:33:37.485Z,10.97
2018-07-27T03:36:05.835Z,12.30
2018-07-27T03:38:34.500Z,12.70
2018-07-27T03:41:06.144Z,11.15
2018-07-27T03:43:34.795Z,14.13
2018-07-27T03:46:03.835Z,11.40
2018-07-27T03:48:32.811Z,13.90
2018-07-27T03:51:01.184Z,15.40
2018-07-27T03:53:30.084Z,11.87
2018-07-27T03:55:58.568Z,11.30
2018-07-27T03:58:27.293Z,13.83
2018-07-27T04:00:56.065Z,12.23
2018-07-27T04:03:24.651Z,12.37
2018-07-27T04:05:53.663Z,18.23
2018-07-27T04:08:22.050Z,23.20
2018-07-27T04:10:50.422Z,12.07
2018-07-27T04:13:18.988Z,21.40
2018-07-27T04:15:47.445Z,14.30
2018-07-27T04:18:16.101Z,13.53
2018-07-27T04:20:44.721Z,15.70
2018-07-27T04:23:13.383Z,12.05
2018-07-27T04:25:41.739Z,16.57
2018-07-27T04:28:10.436Z,17.57
2018-07-27T04:30:38.916Z,19.63
2018-07-27T04:33:07.412Z,13.77
2018-07-27T04:35:36.012Z,13.97
2018-07-27T04:38:05.144Z,19.97
2018-07-27T04:40:33.527Z,12.77
2018-07-27T04:43:02.040Z,15.00
2018-07-27T04:45:30.951Z,12.03
2018-07-27T04:47:59.295Z,13.23
2018-07-27T04:50:28.240Z,13.57
2018-07-27T04:52:56.652Z,15.77
2018-07-27T04:55:25.155Z,12.00
2018-07-27T04:57:53.805Z,15.72
2018-07-27T05:00:22.138Z,15.03
2018-07-27T05:02:50.455Z,19.07
2018-07-27T05:05:19.027Z,14.33
2018-07-27T05:07:47.459Z,19.43
2018-07-27T05:10:21.347Z,14.15
2018-07-27T05:12:49.904Z,12.63
2018-07-27T05:15:18.563Z,12.10
2018-07-27T05:17:47.526Z,14.40
2018-07-27T05:20:16.424Z,16.93
2018-07-27T05:22:45.207Z,12.63
2018-07-27T05:25:15.281Z,13.43
2018-07-27T05:27:43.948Z,16.00
2018-07-27T05:30:12.338Z,14.90
2018-07-27T05:32:41.436Z,13.53
2018-07-27T05:35:09.709Z,12.73
2018-07-27T05:37:38.966Z,16.33
2018-07-27T05:40:08.170Z,15.10
2018-07-27T05:42:36.795Z,20.30
2018-07-27T05:45:08.703Z,11.80
2018-07-27T05:47:38.575Z,12.53
2018-07-27T05:50:10.533Z,16.17
2018-07-27T05:52:41.534Z,15.43
2018-07-27T05:55:13.440Z,18.00
2018-07-27T05:57:44.909Z,13.90
2018-07-27T06:00:13.363Z,11.93
2018-07-27T06:02:41.785Z,12.37
2018-07-27T06:05:11.647Z,11.27
2018-07-27T06:07:40.553Z,13.47
2018-07-27T06:10:10.220Z,14.90
2018-07-27T06:12:39.201Z,13.60
2018-07-27T06:15:10.524Z,17.03
2018-07-27T06:17:41.448Z,12.47
2018-07-27T06:20:09.914Z,13.90
2018-07-27T06:22:42.796Z,15.40
2018-07-27T06:25:13.435Z,12.05
2018-07-27T06:27:48.908Z,11.37
2018-07-27T06:30:20.610Z,11.83
2018-07-27T06:32:59.927Z,10.90
2018-07-27T06:35:30.894Z,13.75
2018-07-27T06:38:05.153Z,8.63
2018-07-27T06:40:45.616Z,16.27
2018-07-27T06:43:14.136Z,10.00
2018-07-27T06:45:59.094Z,11.47
2018-07-27T06:51:14.516Z,9.43
2018-07-27T06:56:53.351Z,8.48
2018-07-27T06:59:49.509Z,8.03
2018-07-27T07:02:52.614Z,10.45
2018-07-27T07:05:21.540Z,11.97
2018-07-27T07:07:50.204Z,9.43
2018-07-27T07:10:18.580Z,19.17
2018-07-27T07:12:49.843Z,7.27
2018-07-27T07:15:23.479Z,8.00
2018-07-27T07:17:52.697Z,9.03
2018-07-27T07:20:22.077Z,7.93
2018-07-27T07:22:50.441Z,8.00
2018-07-27T07:25:19.100Z,9.20
2018-07-27T07:27:47.585Z,7.47
2018-07-27T07:30:16.080Z,7.63
2018-07-27T07:32:44.528Z,7.00
2018-07-27T07:35:13.046Z,7.47
2018-07-27T07:37:41.406Z,8.90
2018-07-27T07:40:10.319Z,7.10
2018-07-27T07:42:39.041Z,7.70
2018-07-27T07:45:07.783Z,11.70
2018-07-27T07:47:36.655Z,9.63
2018-07-27T07:50:06.659Z,8.00
2018-07-27T07:52:35.200Z,9.67
2018-07-27T07:55:04.399Z,9.10
2018-07-27T07:57:33.230Z,7.70
2018-07-27T08:00:01.607Z,9.40
2018-07-27T08:02:30.730Z,8.77
2018-07-27T08:04:59.360Z,9.70
2018-07-27T08:07:30.702Z,9.70
2018-07-27T08:09:59.347Z,8.87
2018-07-27T08:12:28.043Z,8.17
2018-07-27T08:14:58.283Z,9.30
2018-07-27T08:17:26.984Z,5.53
2018-07-27T08:19:55.384Z,6.43
2018-07-27T08:22:24.384Z,9.67
2018-07-27T08:24:53.645Z,6.12
2018-07-27T08:27:22.579Z,10.25
2018-07-27T08:29:50.972Z,11.03
2018-07-27T08:32:19.961Z,8.20
2018-07-27T08:34:48.332Z,7.43
2018-07-27T08:37:16.911Z,7.00
2018-07-27T08:39:45.730Z,7.57
2018-07-27T08:42:14.327Z,7.07
2018-07-27T08:44:43.093Z,6.43
2018-07-27T08:47:13.748Z,5.97
2018-07-27T08:49:49.735Z,9.10
2018-07-27T08:52:19.196Z,7.23
2018-07-27T08:54:51.058Z,6.28
2018-07-27T08:57:19.423Z,6.00
2018-07-27T08:59:48.053Z,6.13
2018-07-27T09:02:16.973Z,6.03
2018-07-27T09:04:45.369Z,6.30
2018-07-27T09:07:14.112Z,6.40
2018-07-27T09:09:42.456Z,6.07
2018-07-27T09:12:13.168Z,5.92
2018-07-27T09:14:59.000Z,7.90
2018-07-27T09:20:13.291Z,5.00
2018-07-27T09:22:42.503Z,5.87
2018-07-27T09:25:11.659Z,6.17
2018-07-27T09:27:40.466Z,5.30
2018-07-27T09:30:08.965Z,6.47
2018-07-27T09:32:37.955Z,5.60
2018-07-27T09:35:06.576Z,5.70
2018-07-27T09:37:35.465Z,4.72
2018-07-27T09:40:04.456Z,26.93
2018-07-27T09:42:33.296Z,6.17
2018-07-27T09:45:02.000Z,5.70
2018-07-27T09:47:30.693Z,5.58
2018-07-27T09:49:59.109Z,5.17
2018-07-27T09:52:27.508Z,7.23
2018-07-27T09:54:56.304Z,5.20
2018-07-27T09:57:24.738Z,5.83
2018-07-27T09:59:53.403Z,11.40
2018-07-27T10:02:21.883Z,6.40
2018-07-27T10:04:50.248Z,6.50
2018-07-27T10:07:18.630Z,7.13
2018-07-27T10:09:47.028Z,5.17
2018-07-27T10:12:16.082Z,6.53
2018-07-27T10:14:45.409Z,7.40
2018-07-27T10:17:14.398Z,4.40
2018-07-27T10:19:42.925Z,5.37
2018-07-27T10:22:13.390Z,6.93
2018-07-27T10:24:42.104Z,5.23
2018-07-27T10:27:10.665Z,5.80
2018-07-27T10:29:39.277Z,5.13
2018-07-27T10:32:07.791Z,4.60
2018-07-27T10:34:36.447Z,4.27
2018-07-27T10:37:05.604Z,5.07
2018-07-27T10:39:34.362Z,5.60
2018-07-27T10:42:04.340Z,3.50
2018-07-27T10:44:33.106Z,4.65
2018-07-27T10:47:01.916Z,8.47
2018-07-27T10:49:30.533Z,4.27
2018-07-27T10:51:59.073Z,4.30
2018-07-27T10:54:27.687Z,4.23
2018-07-27T10:56:56.368Z,5.30
2018-07-27T10:59:24.857Z,3.77
2018-07-27T11:01:53.677Z,3.90
2018-07-27T11:04:22.717Z,4.50
2018-07-27T11:06:51.465Z,5.90
2018-07-27T11:09:21.593Z,4.17
2018-07-27T11:11:50.028Z,3.97
2018-07-27T11:14:18.439Z,4.40
2018-07-27T11:16:47.012Z,3.47
2018-07-27T11:19:15.542Z,4.93
2018-07-27T11:21:44.899Z,7.63
2018-07-27T11:24:16.220Z,4.43
2018-07-27T11:26:46.336Z,4.00
2018-07-27T11:29:14.996Z,4.37
2018-07-27T11:31:43.629Z,4.30
2018-07-27T11:34:12.919Z,4.05
2018-07-27T11:36:42.036Z,3.90
2018-07-27T11:39:12.138Z,3.40
2018-07-27T11:41:40.898Z,2.97
2018-07-27T11:44:09.239Z,4.73
2018-07-27T11:46:37.632Z,3.27
2018-07-27T11:49:06.735Z,6.40
2018-07-27T11:51:36.072Z,5.23
2018-07-27T11:54:04.475Z,3.90
2018-07-27T11:56:34.685Z,4.05
2018-07-27T11:59:03.156Z,3.73
2018-07-27T12:01:31.903Z,3.90
2018-07-27T12:04:00.454Z,3.70
2018-07-27T12:06:29.215Z,3.87
2018-07-27T12:08:58.817Z,3.57
2018-07-27T12:11:27.684Z,4.27
2018-07-27T12:13:56.605Z,3.80
2018-07-27T12:16:25.304Z,4.60
2018-07-27T12:18:53.949Z,5.60
2018-07-27T12:24:10.502Z,3.50
2018-07-27T12:26:41.993Z,3.87
2018-07-27T12:29:19.344Z,4.63
2018-07-27T12:31:55.303Z,3.70
2018-07-27T12:34:26.654Z,3.80
2018-07-27T12:36:56.361Z,3.80
2018-07-27T12:39:26.359Z,3.63
2018-07-27T12:41:55.994Z,3.30
2018-07-27T12:44:24.399Z,3.23
2018-07-27T12:46:52.973Z,6.63
2018-07-27T12:49:21.932Z,4.08
2018-07-27T12:51:51.315Z,6.00
2018-07-27T12:54:20.978Z,3.10
2018-07-27T12:56:50.980Z,4.10
2018-07-27T12:59:21.411Z,3.30
2018-07-27T13:01:50.701Z,3.80
2018-07-27T13:04:19.853Z,3.58
2018-07-27T13:06:49.044Z,3.65
2018-07-27T13:09:19.321Z,3.23
2018-07-27T13:11:48.617Z,3.50
2018-07-27T13:14:20.153Z,2.90
2018-07-27T13:16:49.346Z,2.85
2018-07-27T13:19:20.366Z,3.72
2018-07-27T13:21:49.179Z,4.50
2018-07-27T13:24:20.030Z,3.40
2018-07-27T13:26:50.084Z,2.90
2018-07-27T13:29:19.845Z,4.20
2018-07-27T13:31:59.668Z,4.95
2018-07-27T13:34:44.627Z,3.30
2018-07-27T13:37:16.078Z,7.30
2018-07-27T13:39:47.040Z,4.30
2018-07-27T13:42:18.195Z,3.37
2018-07-27T13:44:49.333Z,2.70
